Time;durP1;ratioP1;P1;durP2;ratioP2;P2;SDS_P1;SDS_P2;PMS_P1;PMS_P2;Temp;Humidity;BMP_temperature;BMP_pressure;BME280_temperature;BME280_humidity;BME280_pressure;Samples;Min_cycle;Max_cycle;Signal;HPM_P1;HPM_P2
2021/08/24 00:00:25;;;;;;;9.25;6.85;;;;;;;20.29;69.47;99858.78;4501855;31;34345;-88
2021/08/24 00:02:54;;;;;;;8.32;7.05;;;;;;;20.55;68.50;99858.63;4474429;31;34267;-87
2021/08/24 00:05:33;;;;;;;8.38;6.97;;;;;;;20.52;68.23;99850.81;4461213;31;33350;-87
2021/08/24 00:08:01;;;;;;;8.95;6.72;;;;;;;20.56;68.05;99860.34;4487443;31;34730;-88
2021/08/24 00:10:41;;;;;;;7.68;6.75;;;;;;;20.67;67.56;99855.50;4474075;31;33722;-88
2021/08/24 00:13:10;;;;;;;7.30;6.35;;;;;;;20.61;67.35;99850.44;4475689;31;33113;-88
2021/08/24 00:15:38;;;;;;;8.70;7.10;;;;;;;20.63;67.43;99848.63;4476002;31;33398;-88
2021/08/24 00:18:06;;;;;;;8.38;6.40;;;;;;;20.37;68.15;99842.66;4488842;31;35643;-87
2021/08/24 00:20:34;;;;;;;10.05;6.70;;;;;;;20.30;68.18;99835.88;4489039;31;34194;-87
2021/08/24 00:23:05;;;;;;;8.35;6.65;;;;;;;20.25;67.95;99839.53;4489015;31;34320;-88
2021/08/24 00:25:35;;;;;;;15.40;8.18;;;;;;;20.28;67.92;99850.94;4488982;31;33663;-87
2021/08/24 00:28:05;;;;;;;7.80;5.95;;;;;;;20.37;67.72;99842.66;4503047;31;35499;-87
2021/08/24 00:30:35;;;;;;;7.93;6.43;;;;;;;20.37;67.24;99837.38;4476081;31;34259;-87
2021/08/24 00:33:02;;;;;;;9.20;6.87;;;;;;;20.33;67.34;99847.19;4488774;31;33580;-87
2021/08/24 00:35:30;;;;;;;11.75;6.68;;;;;;;20.31;67.39;99841.09;4503038;31;34265;-87
2021/08/24 00:37:58;;;;;;;7.43;6.25;;;;;;;20.03;68.06;99850.97;4462893;31;33984;-87
2021/08/24 00:40:25;;;;;;;11.95;6.72;;;;;;;20.04;67.98;99853.53;4475847;31;33837;-87
2021/08/24 00:42:53;;;;;;;8.55;6.20;;;;;;;20.11;67.74;99848.91;4488965;31;34416;-88
2021/08/24 00:45:21;;;;;;;8.02;6.25;;;;;;;20.03;67.75;99848.31;4488722;31;34085;-88
2021/08/24 00:47:50;;;;;;;10.65;6.32;;;;;;;20.09;67.60;99853.34;4475966;31;35465;-86
2021/08/24 00:50:33;;;;;;;7.32;6.45;;;;;;;20.02;67.57;99847.47;4488794;31;34007;-87
2021/08/24 00:53:07;;;;;;;8.82;5.82;;;;;;;20.17;67.10;99856.59;4475574;31;33193;-87
2021/08/24 00:55:36;;;;;;;7.55;5.68;;;;;;;20.03;67.30;99857.13;4475792;31;34665;-87
2021/08/24 00:58:10;;;;;;;9.25;6.07;;;;;;;19.97;67.40;99853.81;4475687;31;35416;-87
2021/08/24 01:00:40;;;;;;;7.60;5.75;;;;;;;20.14;66.86;99859.34;4476035;31;34947;-87
2021/08/24 01:03:19;;;;;;;9.90;5.87;;;;;;;20.20;66.60;99857.34;4488817;31;33433;-87
2021/08/24 01:05:49;;;;;;;7.28;6.03;;;;;;;20.10;66.42;99861.25;4462909;31;33482;-87
2021/08/24 01:08:23;;;;;;;7.10;5.57;;;;;;;20.09;66.46;99858.63;4488981;31;35550;-87
2021/08/24 01:11:19;;;;;;;6.57;5.87;;;;;;;20.08;66.36;99846.38;4475685;31;34443;-87
2021/08/24 01:14:02;;;;;;;7.12;5.57;;;;;;;20.06;66.49;99846.41;4488601;31;33470;-87
2021/08/24 01:16:44;;;;;;;8.00;5.70;;;;;;;19.99;66.68;99841.44;4488431;31;34376;-87
2021/08/24 01:20:00;;;;;;;6.03;4.93;;;;;;;19.93;66.52;99844.31;4488583;31;35000;-88
2021/08/24 01:22:55;;;;;;;6.95;5.40;;;;;;;20.11;66.13;99841.81;4462387;31;33701;-88
2021/08/24 01:25:46;;;;;;;7.25;5.32;;;;;;;20.12;66.10;99842.69;4488409;31;33706;-87
2021/08/24 01:28:28;;;;;;;7.57;4.95;;;;;;;19.90;66.44;99844.41;4475674;31;33549;-87
2021/08/24 01:31:22;;;;;;;5.95;5.20;;;;;;;19.96;66.44;99844.19;4475539;31;34210;-87
2021/08/24 01:34:03;;;;;;;5.00;4.50;;;;;;;20.12;65.76;99842.69;4488494;31;33932;-87
2021/08/24 01:36:36;;;;;;;10.52;5.12;;;;;;;19.96;65.98;99842.44;4488450;31;33668;-87
2021/08/24 01:39:08;;;;;;;8.48;5.10;;;;;;;20.06;65.63;99837.66;4488376;31;34157;-87
2021/08/24 01:42:06;;;;;;;5.22;4.35;;;;;;;20.07;65.42;99842.00;4475358;31;34016;-87
2021/08/24 01:45:10;;;;;;;5.65;4.80;;;;;;;19.98;65.55;99842.34;4488669;31;34316;-87
2021/08/24 01:47:54;;;;;;;6.97;4.62;;;;;;;20.03;65.00;99840.41;4447142;31;33411;-88
2021/08/24 01:50:32;;;;;;;6.40;4.62;;;;;;;19.93;65.56;99831.09;4488468;31;34710;-86
2021/08/24 01:53:07;;;;;;;6.53;4.75;;;;;;;19.89;65.52;99835.66;4475326;31;33827;-87
2021/08/24 01:55:46;;;;;;;5.90;5.30;;;;;;;19.84;65.33;99836.72;4488381;31;34928;-87
2021/08/24 01:58:25;;;;;;;6.55;5.62;;;;;;;19.86;64.90;99840.16;4462441;31;33826;-86
2021/08/24 02:00:57;;;;;;;11.98;5.25;;;;;;;19.74;65.94;99840.63;4488335;31;34698;-86
2021/08/24 02:03:32;;;;;;;7.80;5.62;;;;;;;19.83;64.99;99840.28;4488730;31;35512;-87
2021/08/24 02:06:06;;;;;;;7.32;5.00;;;;;;;19.72;65.36;99848.59;4488284;31;34162;-87
2021/08/24 02:08:36;;;;;;;9.65;5.80;;;;;;;19.76;65.78;99838.78;4475464;31;33094;-86
2021/08/24 02:11:05;;;;;;;6.62;5.40;;;;;;;19.83;65.56;99842.91;4475418;31;34320;-86
2021/08/24 02:13:45;;;;;;;6.70;5.68;;;;;;;19.80;65.62;99835.97;4488162;31;35454;-87
2021/08/24 02:16:19;;;;;;;5.97;5.32;;;;;;;19.67;65.91;99834.72;4475497;31;34639;-86
2021/08/24 02:19:02;;;;;;;6.47;5.78;;;;;;;19.74;65.35;99830.06;4488571;31;33540;-86
2021/08/24 02:21:34;;;;;;;9.93;5.40;;;;;;;19.69;65.68;99832.00;4475175;31;33264;-87
2021/08/24 02:24:05;;;;;;;6.87;5.43;;;;;;;19.69;65.68;99827.59;4487961;31;34984;-86
2021/08/24 02:26:34;;;;;;;6.62;6.03;;;;;;;19.53;65.89;99832.59;4475241;31;34016;-87
2021/08/24 02:29:02;;;;;;;6.15;5.55;;;;;;;19.48;66.08;99833.66;4475100;31;34525;-87
2021/08/24 02:31:30;;;;;;;6.65;5.55;;;;;;;19.48;65.96;99839.78;4474848;31;33382;-87
2021/08/24 02:34:14;;;;;;;9.20;6.07;;;;;;;19.55;65.76;99840.44;4462142;31;34295;-87
2021/08/24 02:37:05;;;;;;;8.93;5.62;;;;;;;19.57;65.77;99839.47;4502227;31;34593;-87
2021/08/24 02:39:39;;;;;;;7.28;5.43;;;;;;;19.62;65.31;99827.88;4488065;31;33701;-87
2021/08/24 02:42:30;;;;;;;12.20;6.45;;;;;;;19.55;65.47;99832.53;4475162;31;33286;-86
2021/08/24 02:45:07;;;;;;;6.80;5.65;;;;;;;19.52;65.70;99830.84;4475294;31;35509;-87
2021/08/24 02:47:37;;;;;;;6.78;5.85;;;;;;;19.46;65.81;99828.44;4487747;31;34946;-87
2021/08/24 02:50:07;;;;;;;10.05;6.43;;;;;;;19.45;65.68;99824.06;4488197;31;33070;-87
2021/08/24 02:52:37;;;;;;;6.45;5.82;;;;;;;19.36;65.71;99827.03;4475048;31;33620;-87
2021/08/24 02:55:07;;;;;;;11.27;6.87;;;;;;;19.47;65.53;99831.91;4488039;31;34667;-87
2021/08/24 02:57:35;;;;;;;8.23;6.50;;;;;;;19.41;65.74;99829.50;4474897;31;34762;-87
2021/08/24 03:00:05;;;;;;;7.60;6.62;;;;;;;19.30;65.96;99827.22;4487827;31;34251;-87
2021/08/24 03:02:33;;;;;;;8.15;7.10;;;;;;;19.06;66.54;99822.81;4487937;31;34720;-86
2021/08/24 03:05:02;;;;;;;7.50;6.80;;;;;;;19.22;66.07;99825.78;4474921;31;33915;-87
2021/08/24 03:07:31;;;;;;;6.80;6.18;;;;;;;19.19;66.16;99825.87;4475103;31;34107;-87
2021/08/24 03:10:03;;;;;;;7.50;6.70;;;;;;;19.29;65.89;99822.88;4488212;31;34250;-88
2021/08/24 03:12:49;;;;;;;6.85;6.03;;;;;;;19.21;66.01;99834.56;4488031;31;33857;-87
2021/08/24 03:15:38;;;;;;;8.75;6.78;;;;;;;19.14;66.18;99830.44;4501971;31;34605;-87
2021/08/24 03:18:15;;;;;;;10.50;6.45;;;;;;;19.02;66.37;99836.16;4488209;31;33888;-86
2021/08/24 03:20:45;;;;;;;10.40;6.60;;;;;;;19.09;66.29;99829.75;4474842;31;33643;-87
2021/08/24 03:23:15;;;;;;;6.47;5.87;;;;;;;18.90;66.61;99837.41;4487832;31;34728;-87
2021/08/24 03:25:47;;;;;;;9.05;6.68;;;;;;;19.09;66.04;99835.03;4475430;31;34690;-87
2021/08/24 03:28:17;;;;;;;8.10;7.30;;;;;;;19.04;66.13;99842.22;4487557;31;34173;-87
2021/08/24 03:30:47;;;;;;;8.40;6.10;;;;;;;19.07;66.07;99842.97;4475117;31;33593;-87
2021/08/24 03:33:17;;;;;;;7.87;6.95;;;;;;;19.08;66.11;99844.69;4487714;31;34703;-87
2021/08/24 03:35:46;;;;;;;7.30;6.45;;;;;;;19.02;66.11;99850.16;4487737;31;33768;-87
2021/08/24 03:38:14;;;;;;;7.37;6.43;;;;;;;19.02;66.10;99844.91;4474364;31;33697;-88
2021/08/24 03:40:41;;;;;;;7.25;6.32;;;;;;;19.11;65.82;99839.31;4474664;31;33980;-88
2021/08/24 03:43:09;;;;;;;8.73;6.32;;;;;;;18.99;65.76;99845.03;4474531;31;34792;-88
2021/08/24 03:45:37;;;;;;;6.53;5.93;;;;;;;19.04;65.69;99844.84;4473821;31;34112;-87
2021/08/24 03:48:05;;;;;;;7.75;6.53;;;;;;;19.00;65.71;99841.44;4500815;31;34289;-87
2021/08/24 03:50:33;;;;;;;6.85;6.15;;;;;;;18.92;65.96;99839.06;4474336;31;33765;-87
2021/08/24 03:53:01;;;;;;;8.02;6.37;;;;;;;19.09;65.33;99840.31;4474737;31;34746;-87
2021/08/24 03:55:28;;;;;;;7.60;6.03;;;;;;;19.04;65.32;99843.06;4501624;31;34912;-87
2021/08/24 03:57:56;;;;;;;6.40;5.75;;;;;;;18.96;65.66;99852.16;4487390;31;34553;-87
2021/08/24 04:00:24;;;;;;;6.95;5.72;;;;;;;18.98;65.70;99851.19;4462036;31;32923;-86
2021/08/24 04:02:54;;;;;;;8.02;5.60;;;;;;;19.17;65.20;99861.97;4474596;31;33640;-86
2021/08/24 04:05:22;;;;;;;7.05;6.37;;;;;;;19.08;65.37;99864.91;4474313;31;33845;-86
2021/08/24 04:07:54;;;;;;;7.23;6.53;;;;;;;18.98;65.74;99869.63;4487576;31;35220;-86
2021/08/24 04:10:22;;;;;;;7.53;6.12;;;;;;;19.16;65.39;99871.66;4461533;31;33037;-86
2021/08/24 04:12:50;;;;;;;6.47;5.87;;;;;;;19.19;64.97;99874.19;4501428;31;34243;-86
2021/08/24 04:15:17;;;;;;;7.65;6.25;;;;;;;19.10;65.06;99871.00;4474210;31;34252;-87
2021/08/24 04:17:45;;;;;;;7.75;5.97;;;;;;;19.05;65.37;99871.16;4474258;31;34272;-86
2021/08/24 04:20:14;;;;;;;6.32;5.72;;;;;;;19.01;65.47;99877.47;4486897;31;34269;-86
2021/08/24 04:22:44;;;;;;;9.15;6.15;;;;;;;19.06;65.42;99872.03;4474326;31;34708;-87
2021/08/24 04:25:12;;;;;;;6.60;5.97;;;;;;;18.98;65.43;99867.00;4487249;31;34609;-86
2021/08/24 04:27:40;;;;;;;6.75;6.07;;;;;;;19.05;65.28;99875.56;4473975;31;34770;-86
2021/08/24 04:30:10;;;;;;;7.03;5.93;;;;;;;19.01;65.07;99873.94;4487159;31;34486;-87
2021/08/24 04:32:43;;;;;;;6.72;5.87;;;;;;;18.94;65.48;99876.78;4486815;31;33140;-86
2021/08/24 04:35:11;;;;;;;7.40;6.40;;;;;;;19.02;65.62;99867.78;4487016;31;34726;-86
2021/08/24 04:37:39;;;;;;;7.57;5.97;;;;;;;18.97;65.66;99867.91;4487203;31;34136;-86
2021/08/24 04:40:07;;;;;;;7.03;6.32;;;;;;;19.01;65.32;99869.53;4500981;31;33772;-86
2021/08/24 04:42:35;;;;;;;7.53;6.75;;;;;;;18.84;66.18;99861.31;4486695;31;34723;-87
2021/08/24 04:45:04;;;;;;;6.68;6.00;;;;;;;19.06;65.80;99859.72;4486848;31;35472;-86
2021/08/24 04:47:31;;;;;;;9.80;6.75;;;;;;;19.10;65.36;99861.31;4473434;31;33507;-86
2021/08/24 04:50:00;;;;;;;7.55;6.85;;;;;;;18.89;65.95;99864.69;4486921;31;34386;-87
2021/08/24 04:52:28;;;;;;;8.18;6.95;;;;;;;18.71;66.77;99873.16;4473369;31;33202;-87
2021/08/24 04:54:55;;;;;;;7.30;6.60;;;;;;;18.88;66.20;99868.22;4486505;31;35674;-86
2021/08/24 04:57:23;;;;;;;10.25;7.30;;;;;;;18.71;66.71;99870.53;4473932;31;34210;-86
2021/08/24 04:59:51;;;;;;;7.78;6.95;;;;;;;18.77;66.99;99872.97;4463291;31;33120;-87
2021/08/24 05:02:21;;;;;;;8.52;6.80;;;;;;;18.67;67.27;99868.91;4488530;31;33343;-87
2021/08/24 05:04:49;;;;;;;8.13;7.32;;;;;;;18.57;67.40;99870.09;4462810;31;34084;-87
2021/08/24 05:07:16;;;;;;;9.38;6.60;;;;;;;18.69;67.34;99870.59;4488622;31;34201;-87
2021/08/24 05:09:44;;;;;;;7.40;6.70;;;;;;;18.76;66.92;99874.75;4488469;31;33422;-88
2021/08/24 05:12:12;;;;;;;8.73;7.20;;;;;;;18.68;67.04;99881.19;4475543;31;34495;-87
2021/08/24 05:14:39;;;;;;;7.97;7.18;;;;;;;18.54;68.22;99880.75;4488611;31;35601;-87
2021/08/24 05:17:07;;;;;;;9.95;6.90;;;;;;;18.78;67.88;99877.31;4475771;31;34302;-87
2021/08/24 05:19:34;;;;;;;7.18;6.47;;;;;;;18.80;68.03;99892.16;4488517;31;34642;-87
2021/08/24 05:22:03;;;;;;;7.22;6.53;;;;;;;18.99;67.36;99881.91;4488473;31;33996;-87
2021/08/24 05:24:34;;;;;;;8.25;6.53;;;;;;;19.16;67.27;99884.84;4475860;31;35587;-87
2021/08/24 05:27:03;;;;;;;7.37;6.68;;;;;;;19.34;66.51;99884.22;4475907;31;33961;-87
2021/08/24 05:29:31;;;;;;;7.65;6.43;;;;;;;19.16;67.02;99884.84;4475148;31;32833;-86
2021/08/24 05:31:59;;;;;;;8.80;6.18;;;;;;;19.50;66.46;99893.34;4475478;31;33433;-87
2021/08/24 05:34:27;;;;;;;7.53;6.10;;;;;;;19.44;66.43;99887.44;4488416;31;34529;-87
2021/08/24 05:36:54;;;;;;;6.78;5.70;;;;;;;19.61;66.14;99882.44;4475500;31;33947;-86
2021/08/24 05:39:22;;;;;;;5.82;5.05;;;;;;;19.76;65.86;99879.22;4475564;31;33582;-86
2021/08/24 05:41:52;;;;;;;6.20;5.60;;;;;;;19.94;65.77;99888.28;4488641;31;34702;-86
2021/08/24 05:44:22;;;;;;;7.85;6.00;;;;;;;20.11;64.80;99889.34;4475612;31;35612;-87
2021/08/24 05:46:50;;;;;;;6.75;6.05;;;;;;;20.21;64.36;99890.72;4488561;31;34422;-87
2021/08/24 05:49:17;;;;;;;9.18;5.82;;;;;;;20.12;64.26;99887.56;4502475;31;33548;-86
2021/08/24 05:51:45;;;;;;;8.30;5.90;;;;;;;20.11;64.57;99888.50;4488125;31;34107;-88
2021/08/24 05:54:13;;;;;;;6.78;6.03;;;;;;;20.25;64.26;99891.53;4488649;31;35541;-85
2021/08/24 05:56:43;;;;;;;5.85;4.82;;;;;;;20.46;63.57;99895.97;4487916;31;35019;-85
2021/08/24 05:59:11;;;;;;;6.93;5.53;;;;;;;20.53;64.06;99892.19;4487010;31;33887;-84
2021/08/24 06:01:38;;;;;;;6.32;5.72;;;;;;;20.77;63.51;99891.22;4488045;31;34096;-86
2021/08/24 06:04:07;;;;;;;6.85;4.70;;;;;;;20.61;63.22;99894.53;4475269;31;35195;-84
2021/08/24 06:06:39;;;;;;;7.97;5.00;;;;;;;20.81;62.55;99892.81;4475690;31;34218;-85
2021/08/24 06:09:12;;;;;;;5.78;5.18;;;;;;;20.78;62.80;99903.50;4474714;31;33125;-86
2021/08/24 06:11:44;;;;;;;6.18;5.57;;;;;;;20.68;63.88;99901.28;4488312;31;34041;-85
2021/08/24 06:14:11;;;;;;;;;;;;;;;21.07;61.85;99888.25;4488857;31;34417;-86
2021/08/24 06:16:40;;;;;;;4.93;4.43;;;;;;;21.17;61.61;99890.47;4488477;31;34975;-85
2021/08/24 06:19:09;;;;;;;5.05;4.22;;;;;;;21.40;61.26;99897.41;4488066;31;33424;-85
2021/08/24 06:21:38;;;;;;;8.07;5.10;;;;;;;21.16;60.32;99896.66;4488320;31;34787;-86
2021/08/24 06:24:07;;;;;;;4.97;4.47;;;;;;;21.27;60.51;99897.09;4462245;31;34709;-86
2021/08/24 06:26:35;;;;;;;4.60;4.20;;;;;;;21.33;59.90;99902.13;4475366;31;34930;-89
2021/08/24 06:29:05;;;;;;;4.65;4.25;;;;;;;21.56;60.36;99903.81;4488358;31;33616;-86
2021/08/24 06:31:32;;;;;;;5.90;4.75;;;;;;;21.51;60.23;99900.50;4474960;31;33969;-87
2021/08/24 06:34:00;;;;;;;4.72;4.30;;;;;;;21.70;60.30;99904.06;4488022;31;35546;-87
2021/08/24 06:36:31;;;;;;;5.62;4.43;;;;;;;21.53;59.50;99906.56;4488151;31;34406;-86
2021/08/24 06:38:59;;;;;;;4.82;4.30;;;;;;;21.72;59.58;99907.50;4502188;31;33752;-88
2021/08/24 06:41:26;;;;;;;7.20;4.78;;;;;;;21.85;59.48;99903.41;4488023;31;33520;-87
2021/08/24 06:43:54;;;;;;;5.28;4.25;;;;;;;21.64;59.58;99900.78;4488160;31;34819;-87
2021/08/24 06:46:22;;;;;;;5.55;4.40;;;;;;;21.92;59.54;99903.97;4462369;31;34171;-87
2021/08/24 06:48:51;;;;;;;6.03;4.65;;;;;;;22.11;58.23;99908.38;4475690;31;33518;-89
2021/08/24 06:51:19;;;;;;;5.03;4.15;;;;;;;22.10;58.73;99905.81;4475688;31;33973;-87
2021/08/24 06:53:46;;;;;;;5.28;4.45;;;;;;;22.12;58.79;99910.13;4488715;31;35435;-90
2021/08/24 06:56:14;;;;;;;6.65;4.95;;;;;;;22.23;57.24;99913.12;4488828;31;34086;-87
2021/08/24 06:58:43;;;;;;;5.53;4.32;;;;;;;22.25;58.92;99910.41;4487938;31;33457;-87
2021/08/24 07:01:19;;;;;;;4.75;3.95;;;;;;;22.43;58.50;99904.25;4474948;31;34823;-88
2021/08/24 07:03:47;;;;;;;5.22;4.68;;;;;;;22.27;59.35;99903.25;4488031;31;34635;-87
2021/08/24 07:06:15;;;;;;;5.00;3.92;;;;;;;22.59;57.95;99905.25;4475145;31;33943;-87
2021/08/24 07:08:43;;;;;;;4.70;4.30;;;;;;;22.63;56.95;99898.91;4475231;31;33283;-88
2021/08/24 07:11:12;;;;;;;8.88;4.50;;;;;;;22.51;57.73;99909.22;4462117;31;34223;-88
2021/08/24 07:13:39;;;;;;;6.10;4.55;;;;;;;22.62;57.33;99904.28;4488025;31;35733;-88
2021/08/24 07:16:09;;;;;;;4.68;4.18;;;;;;;22.55;57.52;99902.81;4474761;31;33652;-88
2021/08/24 07:18:38;;;;;;;5.22;4.60;;;;;;;22.55;57.94;99914.28;4475085;31;33591;-88
2021/08/24 07:21:05;;;;;;;5.40;4.07;;;;;;;22.75;57.19;99906.28;4475143;31;34642;-88
2021/08/24 07:23:32;;;;;;;5.07;4.47;;;;;;;22.75;57.28;99913.34;4474590;31;34991;-88
2021/08/24 07:26:00;;;;;;;6.00;4.62;;;;;;;23.08;57.18;99906.44;4474808;31;33464;-88
2021/08/24 07:28:28;;;;;;;5.90;4.10;;;;;;;23.14;57.48;99908.78;4462074;31;33305;-88
2021/08/24 07:30:55;;;;;;;4.72;4.20;;;;;;;23.55;55.03;99912.91;4501776;31;34774;-88
2021/08/24 07:33:24;;;;;;;4.95;4.00;;;;;;;23.45;56.12;99913.44;4487804;31;35463;-88
2021/08/24 07:35:51;;;;;;;5.93;3.67;;;;;;;23.65;53.95;99915.94;4487575;31;33150;-88
2021/08/24 07:38:19;;;;;;;4.80;4.18;;;;;;;23.66;55.72;99917.66;4501761;31;34298;-88
2021/08/24 07:40:47;;;;;;;4.95;3.92;;;;;;;23.69;55.38;99919.28;4474981;31;34054;-89
2021/08/24 07:43:14;;;;;;;4.70;4.20;;;;;;;23.75;54.43;99913.66;4474747;31;34671;-89
2021/08/24 07:45:42;;;;;;;5.37;4.10;;;;;;;23.77;53.78;99914.44;4474838;31;34079;-89
2021/08/24 07:48:10;;;;;;;5.28;3.65;;;;;;;23.60;55.58;99917.09;4474769;31;34215;-89
2021/08/24 07:50:37;;;;;;;8.25;3.67;;;;;;;23.73;55.23;99926.13;4487330;31;34155;-89
2021/08/24 07:53:10;;;;;;;3.70;3.30;;;;;;;23.99;54.97;99926.50;4475808;31;34578;-89
2021/08/24 07:55:38;;;;;;;5.62;3.58;;;;;;;24.31;54.42;99927.47;4487645;31;34223;-88
2021/08/24 07:58:05;;;;;;;6.40;3.10;;;;;;;24.23;53.86;99925.22;4487465;31;33472;-89
2021/08/24 08:00:33;;;;;;;3.40;3.10;;;;;;;24.50;52.55;99930.00;4487339;31;34076;-89
2021/08/24 08:03:01;;;;;;;5.50;2.72;;;;;;;24.18;50.77;99934.38;4462149;31;34243;-89
2021/08/24 08:05:30;;;;;;;3.83;2.67;;;;;;;24.17;52.63;99940.66;4461872;31;33544;-89
2021/08/24 08:07:58;;;;;;;3.65;2.70;;;;;;;24.23;52.92;99937.66;4474279;31;34000;-89
2021/08/24 08:10:25;;;;;;;4.32;2.42;;;;;;;24.30;52.52;99936.38;4501628;31;34820;-89
2021/08/24 08:12:54;;;;;;;3.65;2.45;;;;;;;23.97;52.15;99943.47;4487311;31;34552;-89
2021/08/24 08:15:24;;;;;;;4.85;2.85;;;;;;;23.79;53.19;99939.13;4487214;31;34122;-89
2021/08/24 08:17:52;;;;;;;3.22;2.62;;;;;;;23.69;52.34;99943.19;4474391;31;33211;-89
2021/08/24 08:20:19;;;;;;;4.57;3.25;;;;;;;24.08;52.32;99938.50;4487199;31;34224;-90
2021/08/24 08:22:49;;;;;;;3.92;2.95;;;;;;;23.96;52.07;99939.09;4474298;31;34639;-88
2021/08/24 08:25:18;;;;;;;3.10;2.80;;;;;;;24.18;51.82;99937.03;4474667;31;34052;-89
2021/08/24 08:27:45;;;;;;;3.65;2.75;;;;;;;24.19;53.45;99938.78;4487256;31;33458;-89
2021/08/24 08:30:13;;;;;;;4.37;2.55;;;;;;;24.01;51.65;99945.03;4473917;31;34086;-89
2021/08/24 08:32:43;;;;;;;4.35;3.15;;;;;;;24.13;52.40;99942.59;4487402;31;34735;-88
2021/08/24 08:35:12;;;;;;;3.97;2.28;;;;;;;24.19;51.37;99941.44;4476076;31;34820;-89
2021/08/24 08:37:41;;;;;;;3.65;2.40;;;;;;;24.26;52.53;99941.94;4475745;31;32888;-88
2021/08/24 08:40:10;;;;;;;4.37;2.05;;;;;;;24.36;51.13;99938.72;4463238;31;33473;-89
2021/08/24 08:42:57;;;;;;;3.62;2.00;;;;;;;24.41;50.89;99944.66;4476071;31;35094;-87
2021/08/24 08:45:40;;;;;;;2.53;2.15;;;;;;;24.23;50.65;99948.28;4475990;31;34029;-87
2021/08/24 08:48:19;;;;;;;4.40;2.33;;;;;;;24.48;50.62;99951.34;4489228;31;34200;-88
2021/08/24 08:50:53;;;;;;;2.40;2.15;;;;;;;24.59;50.36;99946.28;4475940;31;33470;-87
2021/08/24 08:53:44;;;;;;;2.85;2.10;;;;;;;24.58;50.77;99952.53;4475871;31;34046;-88
2021/08/24 08:56:46;;;;;;;2.17;1.92;;;;;;;24.64;49.96;99956.69;4475724;31;33699;-89
2021/08/24 08:59:21;;;;;;;2.58;1.85;;;;;;;24.91;49.71;99949.88;4472084;31;34188;-89
2021/08/24 09:02:18;;;;;;;3.83;2.08;;;;;;;25.02;51.05;99946.59;4475742;31;33476;-89
2021/08/24 09:04:47;;;;;;;2.90;2.03;;;;;;;25.25;47.67;99959.41;4473609;31;35441;-89
2021/08/24 09:07:32;;;;;;;3.10;2.17;;;;;;;25.07;48.91;99950.72;4489076;31;34811;-88
2021/08/24 09:10:00;;;;;;;2.83;1.92;;;;;;;25.12;48.16;99943.31;4462634;31;34059;-89
2021/08/24 09:12:29;;;;;;;3.67;2.00;;;;;;;25.10;48.74;99945.22;4488695;31;34034;-89
2021/08/24 09:14:58;;;;;;;2.97;1.70;;;;;;;24.80;48.57;99942.47;4488763;31;34718;-89
2021/08/24 09:17:45;;;;;;;1.95;1.65;;;;;;;25.13;49.73;99945.00;4488812;31;34214;-89
2021/08/24 09:20:31;;;;;;;4.20;1.73;;;;;;;25.19;48.56;99949.13;4476095;31;34236;-89
2021/08/24 09:23:02;;;;;;;2.80;1.50;;;;;;;24.94;48.53;99943.50;4462909;31;33517;-89
2021/08/24 09:25:44;;;;;;;2.45;1.50;;;;;;;25.20;46.84;99940.22;4475880;31;33930;-88
2021/08/24 09:28:20;;;;;;;2.30;1.50;;;;;;;25.17;47.85;99937.72;4475695;31;34936;-89
2021/08/24 09:30:47;;;;;;;1.73;1.62;;;;;;;25.52;46.47;99932.09;4475635;31;32962;-89
2021/08/24 09:33:16;;;;;;;3.15;1.40;;;;;;;25.38;47.22;99932.03;4475527;31;33265;-89
2021/08/24 09:35:47;;;;;;;2.72;1.85;;;;;;;25.55;47.31;99937.22;4488421;31;35546;-89
2021/08/24 09:38:15;;;;;;;;;;;;;;;25.26;47.06;99935.41;4476533;31;34131;-89
2021/08/24 09:40:52;;;;;;;1.70;1.42;;;;;;;25.24;46.22;99945.28;4502906;31;33187;-90
2021/08/24 09:43:23;;;;;;;2.33;1.50;;;;;;;25.30;46.60;99941.38;4462479;31;33318;-90
2021/08/24 09:46:00;;;;;;;3.60;1.75;;;;;;;24.87;47.65;99937.66;4474604;31;34656;-89
2021/08/24 09:48:30;;;;;;;2.37;1.80;;;;;;;25.28;47.47;99946.81;4488627;31;34276;-89
2021/08/24 09:51:19;;;;;;;3.15;2.30;;;;;;;25.35;48.45;99941.97;4488267;31;33803;-89
2021/08/24 09:53:53;;;;;;;2.30;2.10;;;;;;;25.28;48.00;99944.16;4476170;31;33875;-87
2021/08/24 09:56:23;;;;;;;4.05;1.80;;;;;;;25.17;47.89;99946.59;4475475;31;35432;-88
2021/08/24 09:58:52;;;;;;;2.70;1.85;;;;;;;25.23;47.48;99945.34;4475037;31;33516;-89
2021/08/24 10:01:19;;;;;;;1.92;1.73;;;;;;;25.27;47.69;99945.06;4488286;31;34751;-89
2021/08/24 10:04:06;;;;;;;4.03;1.92;;;;;;;25.13;47.03;99944.16;4488380;31;34152;-89
2021/08/24 10:06:36;;;;;;;2.58;1.70;;;;;;;25.15;46.21;99939.63;4475117;31;34240;-89
2021/08/24 10:09:37;;;;;;;3.25;1.80;;;;;;;25.14;47.31;99945.88;4488298;31;34951;-90
2021/08/24 10:12:14;;;;;;;2.25;1.85;;;;;;;24.94;47.24;99951.50;4488128;31;33510;-90
2021/08/24 10:14:46;;;;;;;1.67;1.35;;;;;;;25.16;46.49;99943.97;4488774;31;33736;-89
2021/08/24 10:17:34;;;;;;;3.47;1.60;;;;;;;25.21;46.58;99941.91;4475136;31;33820;-89
2021/08/24 10:20:34;;;;;;;2.65;1.60;;;;;;;25.14;46.23;99938.75;4475505;31;34298;-92
2021/08/24 10:23:07;;;;;;;1.40;1.30;;;;;;;25.29;45.54;99935.19;4446052;31;34459;-89
2021/08/24 10:25:49;;;;;;;1.45;1.35;;;;;;;25.35;45.44;99929.53;4488137;31;33840;-91
2021/08/24 10:28:22;;;;;;;2.42;1.50;;;;;;;25.32;45.59;99935.03;4475078;31;35015;-89
2021/08/24 10:30:52;;;;;;;1.77;1.30;;;;;;;25.36;44.54;99927.72;4475200;31;33873;-92
2021/08/24 10:33:29;;;;;;;2.37;1.55;;;;;;;25.08;46.06;99931.13;4475109;31;33077;-92
2021/08/24 10:36:05;;;;;;;2.03;1.50;;;;;;;25.40;45.46;99926.59;4475551;31;34761;-91
2021/08/24 10:39:04;;;;;;;1.50;1.33;;;;;;;25.64;43.67;99926.97;4462370;31;34530;-92
2021/08/24 10:41:42;;;;;;;3.60;1.30;;;;;;;25.56;44.80;99916.78;4480399;31;34141;-92
2021/08/24 10:44:21;;;;;;;1.90;1.55;;;;;;;25.77;44.31;99923.47;4475092;31;34239;-90
2021/08/24 10:46:50;;;;;;;4.50;1.48;;;;;;;25.60;45.39;99928.97;4488097;31;34922;-90
2021/08/24 10:49:17;;;;;;;2.58;1.40;;;;;;;25.70;44.88;99924.81;4502074;31;34501;-90
2021/08/24 10:51:55;;;;;;;2.15;1.37;;;;;;;25.61;44.94;99929.81;4477107;31;34561;-89
2021/08/24 10:54:32;;;;;;;3.22;1.50;;;;;;;25.76;46.08;99921.78;4489726;31;34298;-89
2021/08/24 10:57:08;;;;;;;2.00;1.42;;;;;;;25.57;45.55;99922.97;4487553;31;33988;-87
2021/08/24 10:59:36;;;;;;;1.85;1.27;;;;;;;25.38;45.51;99925.84;4462005;31;34094;-90
2021/08/24 11:02:49;;;;;;;1.73;1.40;;;;;;;25.37;44.90;99926.75;4475098;31;34636;-91
2021/08/24 11:05:36;;;;;;;2.15;1.50;;;;;;;25.28;45.58;99935.28;4424555;32;33243;-89
2021/08/24 11:08:13;;;;;;;2.17;1.70;;;;;;;25.11;45.26;99935.41;4424531;32;34832;-91
2021/08/24 11:11:00;;;;;;;1.90;1.58;;;;;;;24.60;46.75;99940.06;4467637;31;35488;-90
2021/08/24 11:13:46;;;;;;;2.25;1.50;;;;;;;24.78;46.62;99923.09;4475036;31;34244;-92
2021/08/24 11:16:26;;;;;;;1.98;1.60;;;;;;;24.53;47.49;99930.66;4502076;31;33317;-88
2021/08/24 11:19:29;;;;;;;2.50;1.83;;;;;;;24.49;47.40;99926.47;4502020;31;34698;-88
2021/08/24 11:22:12;;;;;;;2.00;1.70;;;;;;;24.61;47.09;99925.78;4480235;31;35436;-89
2021/08/24 11:24:58;;;;;;;1.87;1.70;;;;;;;24.64;47.62;99930.09;4461828;31;34363;-89
2021/08/24 11:27:44;;;;;;;1.83;1.45;;;;;;;24.42;47.86;99925.09;4487911;31;33704;-89
2021/08/24 11:30:28;;;;;;;2.03;1.58;;;;;;;24.85;46.49;99923.59;4498748;31;98523;-89
2021/08/24 11:33:01;;;;;;;4.18;1.67;;;;;;;24.99;47.07;99922.81;4461898;31;34022;-89
2021/08/24 11:35:36;;;;;;;1.58;1.10;;;;;;;25.28;46.81;99916.66;4487930;31;33917;-89
2021/08/24 11:38:08;;;;;;;1.65;1.48;;;;;;;25.15;44.47;99913.00;4487540;31;33423;-89
2021/08/24 11:40:54;;;;;;;3.15;1.30;;;;;;;25.35;45.53;99908.22;4461945;31;34355;-89
2021/08/24 11:43:48;;;;;;;3.83;1.35;;;;;;;25.62;45.83;99915.56;4474764;31;34717;-87
2021/08/24 11:46:31;;;;;;;2.45;1.70;;;;;;;25.90;44.36;99915.59;4487700;31;34108;-88
2021/08/24 11:49:10;;;;;;;1.70;1.37;;;;;;;25.84;44.23;99916.00;4474696;31;33307;-89
2021/08/24 11:51:43;;;;;;;5.95;1.75;;;;;;;26.10;44.59;99918.78;4474129;31;33622;-88
2021/08/24 11:54:20;;;;;;;1.62;1.42;;;;;;;26.11;44.92;99920.50;4487436;31;35490;-89
2021/08/24 11:57:13;;;;;;;1.75;1.40;;;;;;;26.26;43.31;99915.19;4460438;31;34542;-90
2021/08/24 11:59:51;;;;;;;2.55;1.85;;;;;;;25.99;44.59;99915.91;4474540;31;32654;-89
2021/08/24 12:02:42;;;;;;;1.60;1.40;;;;;;;25.90;44.60;99916.47;4474382;31;33952;-89